sensor_id;sensor_type;location;lat;lon;timestamp;P1;durP1;ratioP1;P2;durP2;ratioP2
6852;SDS011;3465;42.144;24.722;2023-09-07T00:00:33;12.85;;;8.52;;
6852;SDS011;3465;42.144;24.722;2023-09-07T00:02:59;15.82;;;8.98;;
6852;SDS011;3465;42.144;24.722;2023-09-07T00:05:24;11.43;;;7.72;;
6852;SDS011;3465;42.144;24.722;2023-09-07T00:07:50;11.68;;;8.15;;
6852;SDS011;3465;42.144;24.722;2023-09-07T00:10:15;12.02;;;7.93;;
6852;SDS011;3465;42.144;24.722;2023-09-07T00:12:42;16.13;;;8.40;;
6852;SDS011;3465;42.144;24.722;2023-09-07T00:15:08;14.82;;;7.95;;
6852;SDS011;3465;42.144;24.722;2023-09-07T00:17:35;13.77;;;7.88;;
6852;SDS011;3465;42.144;24.722;2023-09-07T00:20:01;13.25;;;7.95;;
6852;SDS011;3465;42.144;24.722;2023-09-07T00:22:35;9.77;;;7.30;;
6852;SDS011;3465;42.144;24.722;2023-09-07T00:25:00;11.13;;;7.45;;
6852;SDS011;3465;42.144;24.722;2023-09-07T00:27:26;9.55;;;7.28;;
6852;SDS011;3465;42.144;24.722;2023-09-07T00:29:51;11.25;;;7.55;;
6852;SDS011;3465;42.144;24.722;2023-09-07T00:32:17;11.57;;;6.45;;
6852;SDS011;3465;42.144;24.722;2023-09-07T00:34:42;14.27;;;6.90;;
6852;SDS011;3465;42.144;24.722;2023-09-07T00:37:07;13.35;;;7.05;;
6852;SDS011;3465;42.144;24.722;2023-09-07T00:39:33;10.73;;;7.30;;
6852;SDS011;3465;42.144;24.722;2023-09-07T00:41:58;11.70;;;6.57;;
6852;SDS011;3465;42.144;24.722;2023-09-07T00:44:23;11.35;;;6.45;;
6852;SDS011;3465;42.144;24.722;2023-09-07T00:46:49;9.55;;;6.97;;
6852;SDS011;3465;42.144;24.722;2023-09-07T00:49:15;11.50;;;7.38;;
6852;SDS011;3465;42.144;24.722;2023-09-07T00:51:40;11.75;;;7.68;;
6852;SDS011;3465;42.144;24.722;2023-09-07T00:54:05;16.90;;;8.23;;
6852;SDS011;3465;42.144;24.722;2023-09-07T00:56:31;11.18;;;8.18;;
6852;SDS011;3465;42.144;24.722;2023-09-07T00:58:57;12.77;;;7.82;;
6852;SDS011;3465;42.144;24.722;2023-09-07T01:01:25;10.25;;;8.38;;
6852;SDS011;3465;42.144;24.722;2023-09-07T01:03:51;12.57;;;8.18;;
6852;SDS011;3465;42.144;24.722;2023-09-07T01:06:20;13.32;;;9.25;;
6852;SDS011;3465;42.144;24.722;2023-09-07T01:09:02;17.23;;;9.68;;
6852;SDS011;3465;42.144;24.722;2023-09-07T01:11:36;14.80;;;11.23;;
6852;SDS011;3465;42.144;24.722;2023-09-07T01:14:02;17.90;;;11.18;;
6852;SDS011;3465;42.144;24.722;2023-09-07T01:16:29;15.23;;;11.55;;
6852;SDS011;3465;42.144;24.722;2023-09-07T01:18:58;20.27;;;12.40;;
6852;SDS011;3465;42.144;24.722;2023-09-07T01:21:25;20.65;;;13.55;;
6852;SDS011;3465;42.144;24.722;2023-09-07T01:23:53;20.40;;;12.88;;
6852;SDS011;3465;42.144;24.722;2023-09-07T01:26:19;18.98;;;13.30;;
6852;SDS011;3465;42.144;24.722;2023-09-07T01:28:45;21.33;;;13.52;;
6852;SDS011;3465;42.144;24.722;2023-09-07T01:31:10;20.02;;;14.00;;
6852;SDS011;3465;42.144;24.722;2023-09-07T01:33:36;21.48;;;13.68;;
6852;SDS011;3465;42.144;24.722;2023-09-07T01:36:02;21.25;;;14.57;;
6852;SDS011;3465;42.144;24.722;2023-09-07T01:38:27;22.67;;;14.18;;
6852;SDS011;3465;42.144;24.722;2023-09-07T01:40:53;24.42;;;15.30;;
6852;SDS011;3465;42.144;24.722;2023-09-07T01:43:19;23.17;;;14.50;;
6852;SDS011;3465;42.144;24.722;2023-09-07T01:45:44;24.30;;;15.07;;
6852;SDS011;3465;42.144;24.722;2023-09-07T01:48:10;19.98;;;14.73;;
6852;SDS011;3465;42.144;24.722;2023-09-07T01:50:37;19.63;;;14.77;;
6852;SDS011;3465;42.144;24.722;2023-09-07T01:53:03;24.40;;;15.18;;
6852;SDS011;3465;42.144;24.722;2023-09-07T01:55:29;22.27;;;15.35;;
6852;SDS011;3465;42.144;24.722;2023-09-07T01:57:55;25.63;;;16.23;;
6852;SDS011;3465;42.144;24.722;2023-09-07T02:00:21;25.77;;;16.02;;
6852;SDS011;3465;42.144;24.722;2023-09-07T02:02:46;24.20;;;15.68;;
6852;SDS011;3465;42.144;24.722;2023-09-07T02:05:11;25.50;;;16.08;;
6852;SDS011;3465;42.144;24.722;2023-09-07T02:07:37;24.33;;;17.40;;
6852;SDS011;3465;42.144;24.722;2023-09-07T02:10:03;24.83;;;15.93;;
6852;SDS011;3465;42.144;24.722;2023-09-07T02:12:30;22.77;;;16.15;;
6852;SDS011;3465;42.144;24.722;2023-09-07T02:14:55;23.30;;;17.00;;
6852;SDS011;3465;42.144;24.722;2023-09-07T02:17:21;25.92;;;17.65;;
6852;SDS011;3465;42.144;24.722;2023-09-07T02:19:47;27.70;;;16.83;;
6852;SDS011;3465;42.144;24.722;2023-09-07T02:22:12;25.65;;;16.80;;
6852;SDS011;3465;42.144;24.722;2023-09-07T02:24:37;22.98;;;16.88;;
6852;SDS011;3465;42.144;24.722;2023-09-07T02:27:03;25.60;;;18.58;;
6852;SDS011;3465;42.144;24.722;2023-09-07T02:29:29;26.08;;;18.63;;
6852;SDS011;3465;42.144;24.722;2023-09-07T02:31:54;24.20;;;18.20;;
6852;SDS011;3465;42.144;24.722;2023-09-07T02:34:21;30.02;;;18.30;;
6852;SDS011;3465;42.144;24.722;2023-09-07T02:36:47;26.67;;;18.38;;
6852;SDS011;3465;42.144;24.722;2023-09-07T02:39:12;22.55;;;17.95;;
6852;SDS011;3465;42.144;24.722;2023-09-07T02:41:37;24.20;;;16.92;;
6852;SDS011;3465;42.144;24.722;2023-09-07T02:44:06;25.17;;;18.05;;
6852;SDS011;3465;42.144;24.722;2023-09-07T02:46:31;25.25;;;17.85;;
6852;SDS011;3465;42.144;24.722;2023-09-07T02:48:57;26.63;;;17.65;;
6852;SDS011;3465;42.144;24.722;2023-09-07T02:51:25;27.33;;;19.02;;
6852;SDS011;3465;42.144;24.722;2023-09-07T02:53:51;22.70;;;17.17;;
6852;SDS011;3465;42.144;24.722;2023-09-07T02:56:17;22.48;;;17.58;;
6852;SDS011;3465;42.144;24.722;2023-09-07T02:58:42;23.42;;;17.83;;
6852;SDS011;3465;42.144;24.722;2023-09-07T03:01:08;26.80;;;18.70;;
6852;SDS011;3465;42.144;24.722;2023-09-07T03:03:34;24.98;;;18.27;;
6852;SDS011;3465;42.144;24.722;2023-09-07T03:06:07;24.70;;;18.20;;
6852;SDS011;3465;42.144;24.722;2023-09-07T03:08:36;23.65;;;17.63;;
6852;SDS011;3465;42.144;24.722;2023-09-07T03:11:05;23.25;;;17.67;;
6852;SDS011;3465;42.144;24.722;2023-09-07T03:13:31;27.95;;;18.13;;
6852;SDS011;3465;42.144;24.722;2023-09-07T03:15:57;24.38;;;18.10;;
6852;SDS011;3465;42.144;24.722;2023-09-07T03:18:23;24.15;;;18.20;;
6852;SDS011;3465;42.144;24.722;2023-09-07T03:20:49;23.75;;;18.17;;
6852;SDS011;3465;42.144;24.722;2023-09-07T03:26:32;28.90;;;19.05;;
6852;SDS011;3465;42.144;24.722;2023-09-07T03:28:57;23.33;;;18.25;;
6852;SDS011;3465;42.144;24.722;2023-09-07T03:31:23;28.52;;;20.27;;
6852;SDS011;3465;42.144;24.722;2023-09-07T03:33:48;25.40;;;17.95;;
6852;SDS011;3465;42.144;24.722;2023-09-07T03:36:14;26.88;;;18.60;;
6852;SDS011;3465;42.144;24.722;2023-09-07T03:38:40;27.10;;;18.55;;
6852;SDS011;3465;42.144;24.722;2023-09-07T03:41:06;24.55;;;18.95;;
6852;SDS011;3465;42.144;24.722;2023-09-07T03:43:31;26.27;;;18.42;;
6852;SDS011;3465;42.144;24.722;2023-09-07T03:45:57;26.52;;;19.13;;
6852;SDS011;3465;42.144;24.722;2023-09-07T03:48:22;29.02;;;20.27;;
6852;SDS011;3465;42.144;24.722;2023-09-07T03:50:48;27.38;;;19.25;;
6852;SDS011;3465;42.144;24.722;2023-09-07T03:53:13;26.48;;;17.85;;
6852;SDS011;3465;42.144;24.722;2023-09-07T03:55:42;26.88;;;20.02;;
6852;SDS011;3465;42.144;24.722;2023-09-07T03:58:09;25.80;;;18.95;;
6852;SDS011;3465;42.144;24.722;2023-09-07T04:00:37;28.80;;;18.60;;
6852;SDS011;3465;42.144;24.722;2023-09-07T04:03:06;27.35;;;18.92;;
6852;SDS011;3465;42.144;24.722;2023-09-07T04:05:32;26.33;;;19.27;;
6852;SDS011;3465;42.144;24.722;2023-09-07T04:07:58;29.17;;;18.75;;
6852;SDS011;3465;42.144;24.722;2023-09-07T04:10:24;29.52;;;19.35;;
6852;SDS011;3465;42.144;24.722;2023-09-07T04:12:49;29.00;;;20.90;;
6852;SDS011;3465;42.144;24.722;2023-09-07T04:15:15;25.25;;;19.65;;
6852;SDS011;3465;42.144;24.722;2023-09-07T04:17:40;25.83;;;18.85;;
6852;SDS011;3465;42.144;24.722;2023-09-07T04:20:08;28.85;;;19.10;;
6852;SDS011;3465;42.144;24.722;2023-09-07T04:22:36;32.30;;;18.88;;
6852;SDS011;3465;42.144;24.722;2023-09-07T04:25:02;30.65;;;18.83;;
6852;SDS011;3465;42.144;24.722;2023-09-07T04:27:28;27.38;;;18.88;;
6852;SDS011;3465;42.144;24.722;2023-09-07T04:29:53;24.60;;;18.13;;
6852;SDS011;3465;42.144;24.722;2023-09-07T04:32:18;32.20;;;18.98;;
6852;SDS011;3465;42.144;24.722;2023-09-07T04:34:44;36.03;;;18.17;;
6852;SDS011;3465;42.144;24.722;2023-09-07T04:37:09;29.45;;;18.38;;
6852;SDS011;3465;42.144;24.722;2023-09-07T04:39:35;24.92;;;18.23;;
6852;SDS011;3465;42.144;24.722;2023-09-07T04:42:00;28.75;;;18.35;;
6852;SDS011;3465;42.144;24.722;2023-09-07T04:44:26;25.88;;;17.67;;
6852;SDS011;3465;42.144;24.722;2023-09-07T04:46:55;27.95;;;17.27;;
6852;SDS011;3465;42.144;24.722;2023-09-07T04:49:21;28.05;;;16.35;;
6852;SDS011;3465;42.144;24.722;2023-09-07T04:51:46;31.67;;;16.60;;
6852;SDS011;3465;42.144;24.722;2023-09-07T04:54:11;29.77;;;16.55;;
6852;SDS011;3465;42.144;24.722;2023-09-07T04:56:38;36.42;;;16.10;;
6852;SDS011;3465;42.144;24.722;2023-09-07T04:59:06;22.10;;;16.00;;
6852;SDS011;3465;42.144;24.722;2023-09-07T05:05:15;23.08;;;14.70;;
6852;SDS011;3465;42.144;24.722;2023-09-07T05:07:40;32.50;;;16.33;;
6852;SDS011;3465;42.144;24.722;2023-09-07T05:10:06;23.92;;;14.52;;
6852;SDS011;3465;42.144;24.722;2023-09-07T05:12:33;28.42;;;15.07;;
6852;SDS011;3465;42.144;24.722;2023-09-07T05:14:58;24.33;;;14.35;;
6852;SDS011;3465;42.144;24.722;2023-09-07T05:17:25;25.90;;;14.65;;
6852;SDS011;3465;42.144;24.722;2023-09-07T05:19:50;19.90;;;13.45;;
6852;SDS011;3465;42.144;24.722;2023-09-07T05:22:22;25.95;;;13.25;;
6852;SDS011;3465;42.144;24.722;2023-09-07T05:25:15;22.05;;;13.18;;
6852;SDS011;3465;42.144;24.722;2023-09-07T05:27:41;20.75;;;12.77;;
6852;SDS011;3465;42.144;24.722;2023-09-07T05:30:06;21.75;;;13.57;;
6852;SDS011;3465;42.144;24.722;2023-09-07T05:32:32;27.70;;;14.65;;
6852;SDS011;3465;42.144;24.722;2023-09-07T05:34:57;24.67;;;14.13;;
6852;SDS011;3465;42.144;24.722;2023-09-07T05:37:23;23.65;;;13.18;;
6852;SDS011;3465;42.144;24.722;2023-09-07T05:39:48;21.85;;;12.45;;
6852;SDS011;3465;42.144;24.722;2023-09-07T05:42:14;17.33;;;11.90;;
6852;SDS011;3465;42.144;24.722;2023-09-07T05:44:40;23.90;;;11.80;;
6852;SDS011;3465;42.144;24.722;2023-09-07T05:47:06;22.67;;;11.80;;
6852;SDS011;3465;42.144;24.722;2023-09-07T05:49:31;20.92;;;12.18;;
6852;SDS011;3465;42.144;24.722;2023-09-07T05:51:56;20.00;;;13.27;;
6852;SDS011;3465;42.144;24.722;2023-09-07T05:54:22;19.30;;;11.85;;
6852;SDS011;3465;42.144;24.722;2023-09-07T05:56:48;19.55;;;11.40;;
6852;SDS011;3465;42.144;24.722;2023-09-07T05:59:13;20.20;;;11.60;;
6852;SDS011;3465;42.144;24.722;2023-09-07T06:01:39;20.38;;;11.30;;
6852;SDS011;3465;42.144;24.722;2023-09-07T06:04:05;21.98;;;11.02;;
6852;SDS011;3465;42.144;24.722;2023-09-07T06:06:31;28.73;;;11.90;;
6852;SDS011;3465;42.144;24.722;2023-09-07T06:08:56;28.70;;;12.18;;
6852;SDS011;3465;42.144;24.722;2023-09-07T06:11:24;18.45;;;10.32;;
6852;SDS011;3465;42.144;24.722;2023-09-07T06:13:49;27.30;;;12.18;;
6852;SDS011;3465;42.144;24.722;2023-09-07T06:16:14;33.22;;;11.77;;
6852;SDS011;3465;42.144;24.722;2023-09-07T06:18:40;37.40;;;12.02;;
6852;SDS011;3465;42.144;24.722;2023-09-07T06:21:05;31.73;;;11.52;;
6852;SDS011;3465;42.144;24.722;2023-09-07T06:23:31;19.35;;;10.35;;
6852;SDS011;3465;42.144;24.722;2023-09-07T06:25:56;36.67;;;12.05;;
6852;SDS011;3465;42.144;24.722;2023-09-07T06:28:22;17.05;;;10.23;;
6852;SDS011;3465;42.144;24.722;2023-09-07T06:30:47;26.30;;;10.10;;
6852;SDS011;3465;42.144;24.722;2023-09-07T06:33:13;18.90;;;10.68;;
6852;SDS011;3465;42.144;24.722;2023-09-07T06:35:38;23.33;;;10.35;;
6852;SDS011;3465;42.144;24.722;2023-09-07T06:38:04;16.23;;;9.75;;
6852;SDS011;3465;42.144;24.722;2023-09-07T06:40:29;15.50;;;9.90;;
6852;SDS011;3465;42.144;24.722;2023-09-07T06:42:55;20.13;;;10.23;;
6852;SDS011;3465;42.144;24.722;2023-09-07T06:45:22;20.08;;;9.75;;
6852;SDS011;3465;42.144;24.722;2023-09-07T06:47:51;16.05;;;9.23;;
6852;SDS011;3465;42.144;24.722;2023-09-07T06:50:17;13.32;;;9.13;;
6852;SDS011;3465;42.144;24.722;2023-09-07T06:52:42;12.45;;;9.35;;
6852;SDS011;3465;42.144;24.722;2023-09-07T06:55:08;13.25;;;8.48;;
6852;SDS011;3465;42.144;24.722;2023-09-07T06:57:34;14.57;;;8.55;;
6852;SDS011;3465;42.144;24.722;2023-09-07T07:00:00;34.42;;;13.25;;
6852;SDS011;3465;42.144;24.722;2023-09-07T07:02:25;22.95;;;9.88;;
6852;SDS011;3465;42.144;24.722;2023-09-07T07:04:50;17.65;;;8.90;;
6852;SDS011;3465;42.144;24.722;2023-09-07T07:07:16;14.32;;;8.52;;
6852;SDS011;3465;42.144;24.722;2023-09-07T07:09:42;18.27;;;7.90;;
6852;SDS011;3465;42.144;24.722;2023-09-07T07:12:08;18.55;;;8.52;;
6852;SDS011;3465;42.144;24.722;2023-09-07T07:14:34;15.98;;;9.23;;
6852;SDS011;3465;42.144;24.722;2023-09-07T07:16:59;12.23;;;7.47;;
6852;SDS011;3465;42.144;24.722;2023-09-07T07:19:27;12.18;;;7.38;;
6852;SDS011;3465;42.144;24.722;2023-09-07T07:21:53;13.25;;;7.50;;
6852;SDS011;3465;42.144;24.722;2023-09-07T07:24:18;14.73;;;7.97;;
6852;SDS011;3465;42.144;24.722;2023-09-07T07:26:44;18.42;;;8.20;;
6852;SDS011;3465;42.144;24.722;2023-09-07T07:29:10;13.38;;;8.75;;
6852;SDS011;3465;42.144;24.722;2023-09-07T07:31:36;17.90;;;9.10;;
6852;SDS011;3465;42.144;24.722;2023-09-07T07:34:01;21.45;;;8.93;;
6852;SDS011;3465;42.144;24.722;2023-09-07T07:36:27;11.45;;;8.20;;
6852;SDS011;3465;42.144;24.722;2023-09-07T07:38:52;11.50;;;8.23;;
6852;SDS011;3465;42.144;24.722;2023-09-07T07:41:17;12.73;;;7.68;;
6852;SDS011;3465;42.144;24.722;2023-09-07T07:43:43;14.15;;;7.90;;
6852;SDS011;3465;42.144;24.722;2023-09-07T07:46:08;12.45;;;7.68;;
6852;SDS011;3465;42.144;24.722;2023-09-07T07:48:34;22.27;;;8.85;;
6852;SDS011;3465;42.144;24.722;2023-09-07T07:51:02;15.15;;;8.27;;
6852;SDS011;3465;42.144;24.722;2023-09-07T07:53:29;21.77;;;8.55;;
6852;SDS011;3465;42.144;24.722;2023-09-07T07:55:56;13.57;;;7.53;;
6852;SDS011;3465;42.144;24.722;2023-09-07T07:58:22;13.38;;;7.50;;
6852;SDS011;3465;42.144;24.722;2023-09-07T08:00:47;17.60;;;8.85;;
6852;SDS011;3465;42.144;24.722;2023-09-07T08:03:14;15.90;;;7.28;;
6852;SDS011;3465;42.144;24.722;2023-09-07T08:05:39;14.20;;;7.70;;
6852;SDS011;3465;42.144;24.722;2023-09-07T08:08:05;10.20;;;7.05;;
6852;SDS011;3465;42.144;24.722;2023-09-07T08:10:34;14.57;;;7.55;;
6852;SDS011;3465;42.144;24.722;2023-09-07T08:13:01;15.50;;;7.30;;
6852;SDS011;3465;42.144;24.722;2023-09-07T08:15:27;10.73;;;7.00;;
6852;SDS011;3465;42.144;24.722;2023-09-07T08:17:54;12.93;;;7.20;;
6852;SDS011;3465;42.144;24.722;2023-09-07T08:20:20;12.15;;;8.18;;
6852;SDS011;3465;42.144;24.722;2023-09-07T08:22:45;17.38;;;7.68;;
6852;SDS011;3465;42.144;24.722;2023-09-07T08:25:11;21.13;;;13.90;;
6852;SDS011;3465;42.144;24.722;2023-09-07T08:27:41;15.20;;;7.85;;
6852;SDS011;3465;42.144;24.722;2023-09-07T08:30:14;16.17;;;7.22;;
6852;SDS011;3465;42.144;24.722;2023-09-07T08:32:41;13.23;;;6.78;;
6852;SDS011;3465;42.144;24.722;2023-09-07T08:35:09;12.60;;;6.85;;
6852;SDS011;3465;42.144;24.722;2023-09-07T08:37:37;14.00;;;6.50;;
6852;SDS011;3465;42.144;24.722;2023-09-07T08:40:03;17.98;;;7.47;;
6852;SDS011;3465;42.144;24.722;2023-09-07T08:42:32;10.65;;;6.70;;
6852;SDS011;3465;42.144;24.722;2023-09-07T08:44:57;10.50;;;8.48;;
6852;SDS011;3465;42.144;24.722;2023-09-07T08:47:28;14.15;;;7.93;;
6852;SDS011;3465;42.144;24.722;2023-09-07T08:49:56;13.73;;;7.82;;
6852;SDS011;3465;42.144;24.722;2023-09-07T08:52:22;14.57;;;8.63;;
6852;SDS011;3465;42.144;24.722;2023-09-07T08:54:48;10.50;;;7.57;;
6852;SDS011;3465;42.144;24.722;2023-09-07T08:57:15;15.32;;;8.95;;
6852;SDS011;3465;42.144;24.722;2023-09-07T08:59:42;15.20;;;8.68;;
6852;SDS011;3465;42.144;24.722;2023-09-07T09:02:09;17.17;;;8.18;;
6852;SDS011;3465;42.144;24.722;2023-09-07T09:04:36;14.50;;;8.32;;
6852;SDS011;3465;42.144;24.722;2023-09-07T09:07:01;12.43;;;7.88;;
6852;SDS011;3465;42.144;24.722;2023-09-07T09:09:29;14.15;;;8.45;;
6852;SDS011;3465;42.144;24.722;2023-09-07T09:11:55;12.88;;;7.78;;
6852;SDS011;3465;42.144;24.722;2023-09-07T09:14:31;15.05;;;7.47;;
6852;SDS011;3465;42.144;24.722;2023-09-07T09:16:56;16.83;;;7.72;;
6852;SDS011;3465;42.144;24.722;2023-09-07T09:19:29;20.95;;;8.25;;
6852;SDS011;3465;42.144;24.722;2023-09-07T09:21:56;16.42;;;6.90;;
6852;SDS011;3465;42.144;24.722;2023-09-07T09:24:21;13.90;;;7.68;;
6852;SDS011;3465;42.144;24.722;2023-09-07T09:26:48;13.27;;;7.68;;
6852;SDS011;3465;42.144;24.722;2023-09-07T09:29:13;12.00;;;7.65;;
6852;SDS011;3465;42.144;24.722;2023-09-07T09:31:40;22.60;;;11.35;;
6852;SDS011;3465;42.144;24.722;2023-09-07T09:34:06;13.20;;;8.40;;
6852;SDS011;3465;42.144;24.722;2023-09-07T09:36:35;14.60;;;6.88;;
6852;SDS011;3465;42.144;24.722;2023-09-07T09:39:01;18.42;;;8.38;;
6852;SDS011;3465;42.144;24.722;2023-09-07T09:41:29;23.02;;;8.90;;
6852;SDS011;3465;42.144;24.722;2023-09-07T09:43:57;16.05;;;7.65;;
6852;SDS011;3465;42.144;24.722;2023-09-07T09:46:23;17.05;;;7.00;;
6852;SDS011;3465;42.144;24.722;2023-09-07T09:48:49;15.07;;;7.68;;
6852;SDS011;3465;42.144;24.722;2023-09-07T09:51:16;19.02;;;7.53;;
6852;SDS011;3465;42.144;24.722;2023-09-07T09:53:43;16.27;;;7.13;;
6852;SDS011;3465;42.144;24.722;2023-09-07T09:56:10;13.70;;;7.15;;
6852;SDS011;3465;42.144;24.722;2023-09-07T09:58:36;12.55;;;6.50;;
6852;SDS011;3465;42.144;24.722;2023-09-07T10:01:02;11.00;;;6.43;;
6852;SDS011;3465;42.144;24.722;2023-09-07T10:06:11;13.75;;;6.32;;
6852;SDS011;3465;42.144;24.722;2023-09-07T10:08:50;13.88;;;6.20;;
6852;SDS011;3465;42.144;24.722;2023-09-07T10:11:34;13.48;;;6.50;;
6852;SDS011;3465;42.144;24.722;2023-09-07T10:14:05;12.13;;;5.57;;
6852;SDS011;3465;42.144;24.722;2023-09-07T10:19:32;10.88;;;6.38;;
6852;SDS011;3465;42.144;24.722;2023-09-07T10:22:21;9.25;;;5.40;;
6852;SDS011;3465;42.144;24.722;2023-09-07T10:25:06;14.10;;;7.00;;
6852;SDS011;3465;42.144;24.722;2023-09-07T10:27:42;15.63;;;6.00;;
6852;SDS011;3465;42.144;24.722;2023-09-07T10:30:11;14.63;;;6.32;;
6852;SDS011;3465;42.144;24.722;2023-09-07T10:32:44;11.55;;;5.82;;
6852;SDS011;3465;42.144;24.722;2023-09-07T10:35:13;9.90;;;5.50;;
6852;SDS011;3465;42.144;24.722;2023-09-07T10:37:40;12.38;;;6.22;;
6852;SDS011;3465;42.144;24.722;2023-09-07T10:40:06;14.90;;;6.50;;
6852;SDS011;3465;42.144;24.722;2023-09-07T10:42:36;14.23;;;6.55;;
6852;SDS011;3465;42.144;24.722;2023-09-07T10:45:12;12.93;;;5.93;;
6852;SDS011;3465;42.144;24.722;2023-09-07T10:47:41;13.88;;;6.15;;
6852;SDS011;3465;42.144;24.722;2023-09-07T10:50:10;8.02;;;5.47;;
6852;SDS011;3465;42.144;24.722;2023-09-07T10:52:37;8.30;;;5.32;;
6852;SDS011;3465;42.144;24.722;2023-09-07T10:55:05;12.07;;;5.90;;
6852;SDS011;3465;42.144;24.722;2023-09-07T10:57:31;8.20;;;5.40;;
6852;SDS011;3465;42.144;24.722;2023-09-07T10:59:56;8.52;;;5.43;;
6852;SDS011;3465;42.144;24.722;2023-09-07T11:02:22;10.55;;;5.15;;
6852;SDS011;3465;42.144;24.722;2023-09-07T11:04:47;13.32;;;5.30;;
6852;SDS011;3465;42.144;24.722;2023-09-07T11:07:13;11.00;;;5.38;;
6852;SDS011;3465;42.144;24.722;2023-09-07T11:09:42;9.43;;;5.43;;
6852;SDS011;3465;42.144;24.722;2023-09-07T11:12:08;10.93;;;5.40;;
6852;SDS011;3465;42.144;24.722;2023-09-07T11:14:33;7.75;;;5.30;;
6852;SDS011;3465;42.144;24.722;2023-09-07T11:17:00;10.90;;;4.85;;
6852;SDS011;3465;42.144;24.722;2023-09-07T11:19:31;10.05;;;4.93;;
6852;SDS011;3465;42.144;24.722;2023-09-07T11:21:57;8.15;;;5.13;;
6852;SDS011;3465;42.144;24.722;2023-09-07T11:24:22;8.63;;;4.80;;
6852;SDS011;3465;42.144;24.722;2023-09-07T11:26:49;9.23;;;5.40;;
6852;SDS011;3465;42.144;24.722;2023-09-07T11:29:17;9.13;;;5.10;;
6852;SDS011;3465;42.144;24.722;2023-09-07T11:31:46;7.68;;;4.82;;
6852;SDS011;3465;42.144;24.722;2023-09-07T11:34:12;10.90;;;5.47;;
6852;SDS011;3465;42.144;24.722;2023-09-07T11:36:39;10.55;;;5.10;;
6852;SDS011;3465;42.144;24.722;2023-09-07T11:39:05;12.38;;;5.68;;
6852;SDS011;3465;42.144;24.722;2023-09-07T11:41:37;8.85;;;5.22;;
6852;SDS011;3465;42.144;24.722;2023-09-07T11:44:11;13.05;;;5.15;;
6852;SDS011;3465;42.144;24.722;2023-09-07T11:46:37;10.60;;;5.18;;
6852;SDS011;3465;42.144;24.722;2023-09-07T11:49:03;12.30;;;5.13;;
6852;SDS011;3465;42.144;24.722;2023-09-07T11:51:31;8.57;;;4.95;;
6852;SDS011;3465;42.144;24.722;2023-09-07T11:53:57;7.65;;;5.00;;
6852;SDS011;3465;42.144;24.722;2023-09-07T11:56:24;14.27;;;5.43;;
6852;SDS011;3465;42.144;24.722;2023-09-07T11:58:49;15.68;;;5.85;;
6852;SDS011;3465;42.144;24.722;2023-09-07T12:01:14;8.70;;;4.70;;
6852;SDS011;3465;42.144;24.722;2023-09-07T12:03:43;10.32;;;5.00;;
6852;SDS011;3465;42.144;24.722;2023-09-07T12:06:09;8.75;;;5.05;;
6852;SDS011;3465;42.144;24.722;2023-09-07T12:08:35;9.10;;;4.45;;
6852;SDS011;3465;42.144;24.722;2023-09-07T12:11:01;9.13;;;4.55;;
6852;SDS011;3465;42.144;24.722;2023-09-07T12:13:27;16.50;;;5.05;;
6852;SDS011;3465;42.144;24.722;2023-09-07T12:15:52;11.40;;;4.90;;
6852;SDS011;3465;42.144;24.722;2023-09-07T12:18:17;11.60;;;4.90;;
6852;SDS011;3465;42.144;24.722;2023-09-07T12:20:43;10.57;;;6.10;;
6852;SDS011;3465;42.144;24.722;2023-09-07T12:23:09;13.93;;;7.95;;
6852;SDS011;3465;42.144;24.722;2023-09-07T12:25:35;9.23;;;5.13;;
6852;SDS011;3465;42.144;24.722;2023-09-07T12:28:01;6.72;;;4.68;;
6852;SDS011;3465;42.144;24.722;2023-09-07T12:30:27;12.25;;;5.38;;
6852;SDS011;3465;42.144;24.722;2023-09-07T12:32:53;10.48;;;5.13;;
6852;SDS011;3465;42.144;24.722;2023-09-07T12:35:19;16.98;;;5.78;;
6852;SDS011;3465;42.144;24.722;2023-09-07T12:37:48;14.73;;;5.03;;
6852;SDS011;3465;42.144;24.722;2023-09-07T12:40:26;11.50;;;4.47;;
6852;SDS011;3465;42.144;24.722;2023-09-07T12:42:51;11.88;;;5.32;;
6852;SDS011;3465;42.144;24.722;2023-09-07T12:45:16;9.07;;;4.75;;
6852;SDS011;3465;42.144;24.722;2023-09-07T12:47:42;7.45;;;4.45;;
6852;SDS011;3465;42.144;24.722;2023-09-07T12:50:07;10.07;;;4.60;;
6852;SDS011;3465;42.144;24.722;2023-09-07T12:52:33;13.43;;;4.78;;
6852;SDS011;3465;42.144;24.722;2023-09-07T12:55:03;9.55;;;4.55;;
6852;SDS011;3465;42.144;24.722;2023-09-07T12:57:30;10.10;;;5.22;;
6852;SDS011;3465;42.144;24.722;2023-09-07T12:59:55;10.25;;;4.97;;
6852;SDS011;3465;42.144;24.722;2023-09-07T13:02:21;12.32;;;5.25;;
6852;SDS011;3465;42.144;24.722;2023-09-07T13:04:46;10.50;;;5.32;;
6852;SDS011;3465;42.144;24.722;2023-09-07T13:07:18;14.65;;;5.40;;
6852;SDS011;3465;42.144;24.722;2023-09-07T13:10:13;13.10;;;5.78;;
6852;SDS011;3465;42.144;24.722;2023-09-07T13:12:39;14.57;;;5.10;;
6852;SDS011;3465;42.144;24.722;2023-09-07T13:15:06;8.50;;;5.25;;
6852;SDS011;3465;42.144;24.722;2023-09-07T13:17:32;11.65;;;5.05;;
6852;SDS011;3465;42.144;24.722;2023-09-07T13:19:57;9.70;;;5.05;;
6852;SDS011;3465;42.144;24.722;2023-09-07T13:22:22;11.07;;;5.03;;
6852;SDS011;3465;42.144;24.722;2023-09-07T13:24:48;14.05;;;5.78;;
6852;SDS011;3465;42.144;24.722;2023-09-07T13:27:13;11.65;;;5.35;;
6852;SDS011;3465;42.144;24.722;2023-09-07T13:29:39;11.93;;;5.85;;
6852;SDS011;3465;42.144;24.722;2023-09-07T13:32:05;13.32;;;5.50;;
6852;SDS011;3465;42.144;24.722;2023-09-07T13:34:30;14.38;;;5.80;;
6852;SDS011;3465;42.144;24.722;2023-09-07T13:36:56;11.02;;;5.45;;
6852;SDS011;3465;42.144;24.722;2023-09-07T13:39:22;9.63;;;5.72;;
6852;SDS011;3465;42.144;24.722;2023-09-07T13:41:47;12.85;;;5.97;;
6852;SDS011;3465;42.144;24.722;2023-09-07T13:44:13;11.70;;;5.63;;
6852;SDS011;3465;42.144;24.722;2023-09-07T13:46:39;8.63;;;6.10;;
6852;SDS011;3465;42.144;24.722;2023-09-07T13:49:05;11.48;;;5.22;;
6852;SDS011;3465;42.144;24.722;2023-09-07T13:51:30;7.75;;;5.28;;
6852;SDS011;3465;42.144;24.722;2023-09-07T13:54:03;12.82;;;5.68;;
6852;SDS011;3465;42.144;24.722;2023-09-07T13:56:29;10.07;;;5.15;;
6852;SDS011;3465;42.144;24.722;2023-09-07T13:58:55;9.60;;;5.90;;
6852;SDS011;3465;42.144;24.722;2023-09-07T14:01:21;10.82;;;6.20;;
6852;SDS011;3465;42.144;24.722;2023-09-07T14:03:47;10.63;;;5.47;;
6852;SDS011;3465;42.144;24.722;2023-09-07T14:06:12;10.68;;;5.78;;
6852;SDS011;3465;42.144;24.722;2023-09-07T14:08:38;14.27;;;5.15;;
6852;SDS011;3465;42.144;24.722;2023-09-07T14:11:03;10.80;;;5.55;;
6852;SDS011;3465;42.144;24.722;2023-09-07T14:13:28;9.82;;;4.93;;
6852;SDS011;3465;42.144;24.722;2023-09-07T14:15:54;13.43;;;5.75;;
6852;SDS011;3465;42.144;24.722;2023-09-07T14:18:19;11.32;;;5.30;;
6852;SDS011;3465;42.144;24.722;2023-09-07T14:20:44;10.23;;;5.32;;
6852;SDS011;3465;42.144;24.722;2023-09-07T14:23:10;13.32;;;5.38;;
6852;SDS011;3465;42.144;24.722;2023-09-07T14:25:35;12.95;;;5.85;;
6852;SDS011;3465;42.144;24.722;2023-09-07T14:28:02;15.45;;;6.30;;
6852;SDS011;3465;42.144;24.722;2023-09-07T14:30:28;12.18;;;5.28;;
6852;SDS011;3465;42.144;24.722;2023-09-07T14:32:53;11.48;;;5.20;;
6852;SDS011;3465;42.144;24.722;2023-09-07T14:35:19;10.27;;;5.07;;
6852;SDS011;3465;42.144;24.722;2023-09-07T14:37:44;10.48;;;5.47;;
6852;SDS011;3465;42.144;24.722;2023-09-07T14:40:10;9.40;;;5.20;;
6852;SDS011;3465;42.144;24.722;2023-09-07T14:42:35;17.50;;;6.07;;
6852;SDS011;3465;42.144;24.722;2023-09-07T14:45:01;13.85;;;5.30;;
6852;SDS011;3465;42.144;24.722;2023-09-07T14:47:28;12.13;;;5.93;;
6852;SDS011;3465;42.144;24.722;2023-09-07T14:49:53;11.40;;;6.10;;
6852;SDS011;3465;42.144;24.722;2023-09-07T14:52:19;16.17;;;6.50;;